Portland, Oregon
Current Conditions -  °F | °C
As of 2:53 AM on Sunday 23 Nov 2014 (Local Time) from KPDX Reporting Station
Overcast Overcast  
Wind Chill: 43°   Ceiling: 11000
Heat Index: 47°   Visibility: 10mi
Dew Point: 44°   Wind: 8mph
Humidity: 90%   Direction: 180°S
Pressure: 30.3"   Gusts: NA
Location:  45.51°N, 122.67°W
Report Text: KPDX 231053Z 18007KT 10SM FEW010 SCT070 OVC110 08/07 A3030 RMK AO2 SLP259 T00830067
Loading
Personal Weather Stations






























Interactive Weather Map New forecast layout! Learn more

10-Day Weather Forecast

Advertisements
Track Severe Weather on mobile